Live aus Altenrhein
LIVE
LSZR 211950Z AUTO 18017G28KT 140V210 CAVOK 24/15 Q1018
Zeitraffer heute
2018-08-21 00:14:27
LSZR 202150Z AUTO VRB02KT CAVOK 21/16 Q1020
Zeitraffer gestern
2018-08-20 00:13:51
LSZR 192150Z AUTO 15002KT 9999 SCT060TCU BKN140 22/17 Q1021
Zeitraffer vor 3 Tagen
2018-08-18 00:14:03
LSZR 172150Z AUTO VRB02KT 9999 BKN070 SCT090 BKN130 19/15 Q1020